sensor_id;sensor_type;location;lat;lon;timestamp;P1;durP1;ratioP1;P2;durP2;ratioP2
28774;SDS011;15926;51.348;6.596;2023-05-06T00:01:35;28.00;;;16.42;;
28774;SDS011;15926;51.348;6.596;2023-05-06T00:04:01;28.00;;;14.63;;
28774;SDS011;15926;51.348;6.596;2023-05-06T00:06:27;29.90;;;16.40;;
28774;SDS011;15926;51.348;6.596;2023-05-06T00:08:53;27.95;;;16.52;;
28774;SDS011;15926;51.348;6.596;2023-05-06T00:11:19;29.65;;;17.58;;
28774;SDS011;15926;51.348;6.596;2023-05-06T00:13:45;28.50;;;16.42;;
28774;SDS011;15926;51.348;6.596;2023-05-06T00:16:11;25.27;;;16.02;;
28774;SDS011;15926;51.348;6.596;2023-05-06T00:18:37;27.90;;;16.00;;
28774;SDS011;15926;51.348;6.596;2023-05-06T00:21:03;28.95;;;17.20;;
28774;SDS011;15926;51.348;6.596;2023-05-06T00:23:29;31.33;;;17.52;;
28774;SDS011;15926;51.348;6.596;2023-05-06T00:25:55;28.80;;;16.77;;
28774;SDS011;15926;51.348;6.596;2023-05-06T00:28:21;28.75;;;17.42;;
28774;SDS011;15926;51.348;6.596;2023-05-06T00:30:47;27.15;;;16.95;;
28774;SDS011;15926;51.348;6.596;2023-05-06T00:33:16;31.83;;;17.00;;
28774;SDS011;15926;51.348;6.596;2023-05-06T00:35:42;27.27;;;15.05;;
28774;SDS011;15926;51.348;6.596;2023-05-06T00:38:09;29.42;;;16.85;;
28774;SDS011;15926;51.348;6.596;2023-05-06T00:40:35;30.27;;;16.67;;
28774;SDS011;15926;51.348;6.596;2023-05-06T00:43:01;31.90;;;16.67;;
28774;SDS011;15926;51.348;6.596;2023-05-06T00:45:30;31.48;;;16.90;;
28774;SDS011;15926;51.348;6.596;2023-05-06T00:47:56;31.90;;;17.40;;
28774;SDS011;15926;51.348;6.596;2023-05-06T00:50:22;31.92;;;16.88;;
28774;SDS011;15926;51.348;6.596;2023-05-06T00:52:49;33.75;;;18.33;;
28774;SDS011;15926;51.348;6.596;2023-05-06T00:55:15;27.92;;;16.98;;
28774;SDS011;15926;51.348;6.596;2023-05-06T00:57:41;27.13;;;15.98;;
28774;SDS011;15926;51.348;6.596;2023-05-06T01:00:08;29.02;;;16.80;;
28774;SDS011;15926;51.348;6.596;2023-05-06T01:02:35;31.95;;;16.92;;
28774;SDS011;15926;51.348;6.596;2023-05-06T01:05:01;34.35;;;16.52;;
28774;SDS011;15926;51.348;6.596;2023-05-06T01:07:35;30.20;;;15.82;;
28774;SDS011;15926;51.348;6.596;2023-05-06T01:12:43;31.98;;;16.88;;
28774;SDS011;15926;51.348;6.596;2023-05-06T01:15:17;33.22;;;16.30;;
28774;SDS011;15926;51.348;6.596;2023-05-06T01:17:45;29.23;;;15.95;;
28774;SDS011;15926;51.348;6.596;2023-05-06T01:20:13;32.38;;;17.02;;
28774;SDS011;15926;51.348;6.596;2023-05-06T01:22:41;29.60;;;16.58;;
28774;SDS011;15926;51.348;6.596;2023-05-06T01:25:16;27.83;;;14.98;;
28774;SDS011;15926;51.348;6.596;2023-05-06T01:27:43;30.83;;;16.30;;
28774;SDS011;15926;51.348;6.596;2023-05-06T01:30:09;26.60;;;15.13;;
28774;SDS011;15926;51.348;6.596;2023-05-06T01:35:34;27.08;;;15.40;;
28774;SDS011;15926;51.348;6.596;2023-05-06T01:38:10;28.42;;;14.60;;
28774;SDS011;15926;51.348;6.596;2023-05-06T01:40:37;25.52;;;14.75;;
28774;SDS011;15926;51.348;6.596;2023-05-06T01:43:04;24.33;;;14.60;;
28774;SDS011;15926;51.348;6.596;2023-05-06T01:45:31;27.67;;;15.90;;
28774;SDS011;15926;51.348;6.596;2023-05-06T01:47:58;23.48;;;13.85;;
28774;SDS011;15926;51.348;6.596;2023-05-06T01:50:25;29.80;;;13.38;;
28774;SDS011;15926;51.348;6.596;2023-05-06T01:53:01;25.98;;;15.00;;
28774;SDS011;15926;51.348;6.596;2023-05-06T01:55:27;25.02;;;13.88;;
28774;SDS011;15926;51.348;6.596;2023-05-06T01:57:53;29.55;;;15.27;;
28774;SDS011;15926;51.348;6.596;2023-05-06T02:00:23;28.92;;;15.15;;
28774;SDS011;15926;51.348;6.596;2023-05-06T02:02:49;24.10;;;13.38;;
28774;SDS011;15926;51.348;6.596;2023-05-06T02:05:15;26.55;;;14.63;;
28774;SDS011;15926;51.348;6.596;2023-05-06T02:07:41;27.08;;;15.15;;
28774;SDS011;15926;51.348;6.596;2023-05-06T02:10:07;30.00;;;15.30;;
28774;SDS011;15926;51.348;6.596;2023-05-06T02:12:34;26.92;;;14.65;;
28774;SDS011;15926;51.348;6.596;2023-05-06T02:14:59;25.08;;;14.20;;
28774;SDS011;15926;51.348;6.596;2023-05-06T02:17:25;28.20;;;14.45;;
28774;SDS011;15926;51.348;6.596;2023-05-06T02:19:52;30.13;;;15.70;;
28774;SDS011;15926;51.348;6.596;2023-05-06T02:22:17;29.80;;;14.98;;
28774;SDS011;15926;51.348;6.596;2023-05-06T02:24:43;32.30;;;15.57;;
28774;SDS011;15926;51.348;6.596;2023-05-06T02:27:09;31.92;;;16.88;;
28774;SDS011;15926;51.348;6.596;2023-05-06T02:29:35;30.15;;;16.73;;
28774;SDS011;15926;51.348;6.596;2023-05-06T02:32:02;27.50;;;14.80;;
28774;SDS011;15926;51.348;6.596;2023-05-06T02:34:28;30.65;;;15.23;;
28774;SDS011;15926;51.348;6.596;2023-05-06T02:36:53;30.17;;;14.38;;
28774;SDS011;15926;51.348;6.596;2023-05-06T02:39:21;29.08;;;15.02;;
28774;SDS011;15926;51.348;6.596;2023-05-06T02:41:46;28.98;;;16.00;;
28774;SDS011;15926;51.348;6.596;2023-05-06T02:44:12;34.78;;;16.77;;
28774;SDS011;15926;51.348;6.596;2023-05-06T02:46:38;34.22;;;15.57;;
28774;SDS011;15926;51.348;6.596;2023-05-06T02:49:04;28.33;;;14.20;;
28774;SDS011;15926;51.348;6.596;2023-05-06T02:51:30;29.92;;;15.52;;
28774;SDS011;15926;51.348;6.596;2023-05-06T02:53:56;26.52;;;13.82;;
28774;SDS011;15926;51.348;6.596;2023-05-06T02:56:22;25.65;;;14.32;;
28774;SDS011;15926;51.348;6.596;2023-05-06T02:58:48;31.08;;;14.82;;
28774;SDS011;15926;51.348;6.596;2023-05-06T03:01:14;33.25;;;15.38;;
28774;SDS011;15926;51.348;6.596;2023-05-06T03:03:40;30.70;;;15.57;;
28774;SDS011;15926;51.348;6.596;2023-05-06T03:06:06;33.17;;;16.20;;
28774;SDS011;15926;51.348;6.596;2023-05-06T03:08:32;33.88;;;16.02;;
28774;SDS011;15926;51.348;6.596;2023-05-06T03:10:58;31.38;;;16.50;;
28774;SDS011;15926;51.348;6.596;2023-05-06T03:13:24;34.55;;;15.30;;
28774;SDS011;15926;51.348;6.596;2023-05-06T03:15:51;34.65;;;15.63;;
28774;SDS011;15926;51.348;6.596;2023-05-06T03:18:20;32.22;;;15.38;;
28774;SDS011;15926;51.348;6.596;2023-05-06T03:20:47;32.40;;;15.98;;
28774;SDS011;15926;51.348;6.596;2023-05-06T03:23:13;34.30;;;17.05;;
28774;SDS011;15926;51.348;6.596;2023-05-06T03:25:39;32.05;;;16.23;;
28774;SDS011;15926;51.348;6.596;2023-05-06T03:28:05;36.88;;;17.23;;
28774;SDS011;15926;51.348;6.596;2023-05-06T03:30:31;31.27;;;16.25;;
28774;SDS011;15926;51.348;6.596;2023-05-06T03:33:00;31.67;;;14.98;;
28774;SDS011;15926;51.348;6.596;2023-05-06T03:35:26;33.05;;;15.55;;
28774;SDS011;15926;51.348;6.596;2023-05-06T03:37:53;31.05;;;15.60;;
28774;SDS011;15926;51.348;6.596;2023-05-06T03:40:19;37.28;;;17.20;;
28774;SDS011;15926;51.348;6.596;2023-05-06T03:42:45;35.33;;;16.08;;
28774;SDS011;15926;51.348;6.596;2023-05-06T03:45:11;37.40;;;17.00;;
28774;SDS011;15926;51.348;6.596;2023-05-06T03:47:37;44.78;;;18.88;;
28774;SDS011;15926;51.348;6.596;2023-05-06T03:50:03;50.97;;;19.38;;
28774;SDS011;15926;51.348;6.596;2023-05-06T03:52:29;45.67;;;19.27;;
28774;SDS011;15926;51.348;6.596;2023-05-06T03:54:55;42.95;;;19.05;;
28774;SDS011;15926;51.348;6.596;2023-05-06T03:57:21;59.00;;;18.95;;
28774;SDS011;15926;51.348;6.596;2023-05-06T03:59:47;47.38;;;19.77;;
28774;SDS011;15926;51.348;6.596;2023-05-06T04:02:13;53.40;;;19.02;;
28774;SDS011;15926;51.348;6.596;2023-05-06T04:04:39;51.83;;;17.90;;
28774;SDS011;15926;51.348;6.596;2023-05-06T04:07:05;49.85;;;17.85;;
28774;SDS011;15926;51.348;6.596;2023-05-06T04:09:31;52.78;;;19.58;;
28774;SDS011;15926;51.348;6.596;2023-05-06T04:11:57;44.67;;;18.35;;
28774;SDS011;15926;51.348;6.596;2023-05-06T04:14:23;45.25;;;19.60;;
28774;SDS011;15926;51.348;6.596;2023-05-06T04:16:49;53.00;;;20.38;;
28774;SDS011;15926;51.348;6.596;2023-05-06T04:19:15;44.47;;;19.20;;
28774;SDS011;15926;51.348;6.596;2023-05-06T04:21:41;57.42;;;20.95;;
28774;SDS011;15926;51.348;6.596;2023-05-06T04:24:07;52.78;;;19.77;;
28774;SDS011;15926;51.348;6.596;2023-05-06T04:26:33;50.80;;;20.48;;
28774;SDS011;15926;51.348;6.596;2023-05-06T04:28:59;50.15;;;21.35;;
28774;SDS011;15926;51.348;6.596;2023-05-06T04:31:25;47.85;;;20.67;;
28774;SDS011;15926;51.348;6.596;2023-05-06T04:33:53;57.05;;;22.02;;
28774;SDS011;15926;51.348;6.596;2023-05-06T04:36:18;51.47;;;20.38;;
28774;SDS011;15926;51.348;6.596;2023-05-06T04:38:44;54.47;;;21.35;;
28774;SDS011;15926;51.348;6.596;2023-05-06T04:41:11;47.55;;;21.35;;
28774;SDS011;15926;51.348;6.596;2023-05-06T04:43:38;51.60;;;22.05;;
28774;SDS011;15926;51.348;6.596;2023-05-06T04:46:04;49.95;;;22.15;;
28774;SDS011;15926;51.348;6.596;2023-05-06T04:48:30;52.90;;;22.33;;
28774;SDS011;15926;51.348;6.596;2023-05-06T04:50:56;50.35;;;22.80;;
28774;SDS011;15926;51.348;6.596;2023-05-06T04:53:22;54.97;;;21.85;;
28774;SDS011;15926;51.348;6.596;2023-05-06T04:55:48;45.35;;;20.50;;
28774;SDS011;15926;51.348;6.596;2023-05-06T04:58:13;44.78;;;21.35;;
28774;SDS011;15926;51.348;6.596;2023-05-06T05:00:40;53.15;;;22.15;;
28774;SDS011;15926;51.348;6.596;2023-05-06T05:03:06;53.53;;;23.40;;
28774;SDS011;15926;51.348;6.596;2023-05-06T05:05:32;49.40;;;22.80;;
28774;SDS011;15926;51.348;6.596;2023-05-06T05:07:58;46.20;;;21.52;;
28774;SDS011;15926;51.348;6.596;2023-05-06T05:10:24;46.20;;;21.50;;
28774;SDS011;15926;51.348;6.596;2023-05-06T05:12:50;52.60;;;22.48;;
28774;SDS011;15926;51.348;6.596;2023-05-06T05:15:16;50.35;;;21.85;;
28774;SDS011;15926;51.348;6.596;2023-05-06T05:17:43;51.55;;;22.38;;
28774;SDS011;15926;51.348;6.596;2023-05-06T05:20:09;52.60;;;22.90;;
28774;SDS011;15926;51.348;6.596;2023-05-06T05:22:35;46.70;;;20.17;;
28774;SDS011;15926;51.348;6.596;2023-05-06T05:25:01;45.60;;;21.95;;
28774;SDS011;15926;51.348;6.596;2023-05-06T05:27:27;42.85;;;21.20;;
28774;SDS011;15926;51.348;6.596;2023-05-06T05:29:53;47.75;;;22.73;;
28774;SDS011;15926;51.348;6.596;2023-05-06T05:32:19;49.90;;;22.92;;
28774;SDS011;15926;51.348;6.596;2023-05-06T05:34:45;52.83;;;23.35;;
28774;SDS011;15926;51.348;6.596;2023-05-06T05:37:11;47.50;;;23.60;;
28774;SDS011;15926;51.348;6.596;2023-05-06T05:39:37;50.10;;;23.08;;
28774;SDS011;15926;51.348;6.596;2023-05-06T05:42:03;45.85;;;23.13;;
28774;SDS011;15926;51.348;6.596;2023-05-06T05:44:29;50.35;;;23.88;;
28774;SDS011;15926;51.348;6.596;2023-05-06T05:46:55;44.30;;;20.80;;
28774;SDS011;15926;51.348;6.596;2023-05-06T05:49:21;52.38;;;23.55;;
28774;SDS011;15926;51.348;6.596;2023-05-06T05:51:47;54.05;;;23.10;;
28774;SDS011;15926;51.348;6.596;2023-05-06T05:54:14;46.70;;;24.25;;
28774;SDS011;15926;51.348;6.596;2023-05-06T05:56:40;48.28;;;24.38;;
28774;SDS011;15926;51.348;6.596;2023-05-06T05:59:06;49.28;;;23.70;;
28774;SDS011;15926;51.348;6.596;2023-05-06T06:01:32;52.10;;;23.92;;
28774;SDS011;15926;51.348;6.596;2023-05-06T06:03:58;50.70;;;23.40;;
28774;SDS011;15926;51.348;6.596;2023-05-06T06:06:25;49.40;;;23.80;;
28774;SDS011;15926;51.348;6.596;2023-05-06T06:08:51;43.85;;;21.42;;
28774;SDS011;15926;51.348;6.596;2023-05-06T06:11:17;43.50;;;22.55;;
28774;SDS011;15926;51.348;6.596;2023-05-06T06:13:43;45.55;;;22.08;;
28774;SDS011;15926;51.348;6.596;2023-05-06T06:16:09;44.92;;;23.13;;
28774;SDS011;15926;51.348;6.596;2023-05-06T06:18:35;44.88;;;22.92;;
28774;SDS011;15926;51.348;6.596;2023-05-06T06:21:01;41.38;;;22.60;;
28774;SDS011;15926;51.348;6.596;2023-05-06T06:23:27;40.45;;;21.65;;
28774;SDS011;15926;51.348;6.596;2023-05-06T06:25:53;41.40;;;23.00;;
28774;SDS011;15926;51.348;6.596;2023-05-06T06:28:20;46.08;;;22.80;;
28774;SDS011;15926;51.348;6.596;2023-05-06T06:30:46;41.13;;;22.05;;
28774;SDS011;15926;51.348;6.596;2023-05-06T06:33:12;41.10;;;22.45;;
28774;SDS011;15926;51.348;6.596;2023-05-06T06:35:38;39.88;;;22.50;;
28774;SDS011;15926;51.348;6.596;2023-05-06T06:38:04;41.72;;;21.88;;
28774;SDS011;15926;51.348;6.596;2023-05-06T06:40:30;42.33;;;21.77;;
28774;SDS011;15926;51.348;6.596;2023-05-06T06:42:56;38.83;;;22.13;;
28774;SDS011;15926;51.348;6.596;2023-05-06T06:45:22;35.20;;;20.88;;
28774;SDS011;15926;51.348;6.596;2023-05-06T06:47:48;36.05;;;19.38;;
28774;SDS011;15926;51.348;6.596;2023-05-06T06:50:14;37.50;;;20.70;;
28774;SDS011;15926;51.348;6.596;2023-05-06T06:52:40;31.88;;;19.35;;
28774;SDS011;15926;51.348;6.596;2023-05-06T06:55:06;35.47;;;20.60;;
28774;SDS011;15926;51.348;6.596;2023-05-06T06:57:32;35.95;;;21.60;;
28774;SDS011;15926;51.348;6.596;2023-05-06T06:59:58;33.67;;;19.45;;
28774;SDS011;15926;51.348;6.596;2023-05-06T07:02:24;33.63;;;19.60;;
28774;SDS011;15926;51.348;6.596;2023-05-06T07:04:50;35.17;;;19.75;;
28774;SDS011;15926;51.348;6.596;2023-05-06T07:07:16;31.60;;;19.58;;
28774;SDS011;15926;51.348;6.596;2023-05-06T07:09:42;28.67;;;19.20;;
28774;SDS011;15926;51.348;6.596;2023-05-06T07:12:08;28.92;;;19.17;;
28774;SDS011;15926;51.348;6.596;2023-05-06T07:14:34;26.95;;;17.35;;
28774;SDS011;15926;51.348;6.596;2023-05-06T07:17:00;30.30;;;17.98;;
28774;SDS011;15926;51.348;6.596;2023-05-06T07:19:27;26.90;;;17.38;;
28774;SDS011;15926;51.348;6.596;2023-05-06T07:21:53;24.75;;;16.60;;
28774;SDS011;15926;51.348;6.596;2023-05-06T07:24:19;27.00;;;17.35;;
28774;SDS011;15926;51.348;6.596;2023-05-06T07:26:46;25.58;;;17.25;;
28774;SDS011;15926;51.348;6.596;2023-05-06T07:29:12;26.65;;;16.35;;
28774;SDS011;15926;51.348;6.596;2023-05-06T07:31:38;25.52;;;16.20;;
28774;SDS011;15926;51.348;6.596;2023-05-06T07:34:04;22.67;;;15.88;;
28774;SDS011;15926;51.348;6.596;2023-05-06T07:36:30;23.88;;;14.68;;
28774;SDS011;15926;51.348;6.596;2023-05-06T07:39:04;19.00;;;13.52;;
28774;SDS011;15926;51.348;6.596;2023-05-06T07:41:30;21.63;;;12.55;;
28774;SDS011;15926;51.348;6.596;2023-05-06T07:43:56;16.02;;;10.50;;
28774;SDS011;15926;51.348;6.596;2023-05-06T07:46:22;16.85;;;11.07;;
28774;SDS011;15926;51.348;6.596;2023-05-06T07:48:48;15.07;;;10.43;;
28774;SDS011;15926;51.348;6.596;2023-05-06T07:51:15;13.65;;;10.75;;
28774;SDS011;15926;51.348;6.596;2023-05-06T07:53:41;12.98;;;9.48;;
28774;SDS011;15926;51.348;6.596;2023-05-06T07:56:07;13.23;;;9.65;;
28774;SDS011;15926;51.348;6.596;2023-05-06T07:58:33;9.13;;;7.00;;
28774;SDS011;15926;51.348;6.596;2023-05-06T08:00:59;11.30;;;7.40;;
28774;SDS011;15926;51.348;6.596;2023-05-06T08:03:25;9.55;;;7.53;;
28774;SDS011;15926;51.348;6.596;2023-05-06T08:05:51;7.65;;;6.50;;
28774;SDS011;15926;51.348;6.596;2023-05-06T08:08:19;8.85;;;6.53;;
28774;SDS011;15926;51.348;6.596;2023-05-06T08:10:45;10.85;;;6.32;;
28774;SDS011;15926;51.348;6.596;2023-05-06T08:13:11;5.90;;;5.32;;
28774;SDS011;15926;51.348;6.596;2023-05-06T08:15:37;6.88;;;5.22;;
28774;SDS011;15926;51.348;6.596;2023-05-06T08:18:04;7.50;;;5.25;;
28774;SDS011;15926;51.348;6.596;2023-05-06T08:20:30;6.00;;;5.20;;
28774;SDS011;15926;51.348;6.596;2023-05-06T08:22:56;6.22;;;4.82;;
28774;SDS011;15926;51.348;6.596;2023-05-06T08:25:24;5.33;;;4.70;;
28774;SDS011;15926;51.348;6.596;2023-05-06T08:27:50;7.97;;;5.18;;
28774;SDS011;15926;51.348;6.596;2023-05-06T08:30:16;6.07;;;4.68;;
28774;SDS011;15926;51.348;6.596;2023-05-06T08:32:42;5.85;;;5.00;;
28774;SDS011;15926;51.348;6.596;2023-05-06T08:35:08;6.95;;;4.97;;
28774;SDS011;15926;51.348;6.596;2023-05-06T08:37:34;4.47;;;3.90;;
28774;SDS011;15926;51.348;6.596;2023-05-06T08:40:00;5.90;;;4.28;;
28774;SDS011;15926;51.348;6.596;2023-05-06T08:42:26;6.13;;;5.25;;
28774;SDS011;15926;51.348;6.596;2023-05-06T08:44:53;5.10;;;4.03;;
28774;SDS011;15926;51.348;6.596;2023-05-06T08:47:20;3.90;;;3.47;;
28774;SDS011;15926;51.348;6.596;2023-05-06T08:49:46;6.78;;;4.22;;
28774;SDS011;15926;51.348;6.596;2023-05-06T08:52:13;6.93;;;4.25;;
28774;SDS011;15926;51.348;6.596;2023-05-06T08:54:39;5.10;;;4.13;;
28774;SDS011;15926;51.348;6.596;2023-05-06T08:57:07;4.40;;;4.00;;
28774;SDS011;15926;51.348;6.596;2023-05-06T08:59:35;4.38;;;4.00;;
28774;SDS011;15926;51.348;6.596;2023-05-06T09:02:02;4.72;;;3.75;;
28774;SDS011;15926;51.348;6.596;2023-05-06T09:04:28;3.63;;;3.10;;
28774;SDS011;15926;51.348;6.596;2023-05-06T09:06:56;5.50;;;3.53;;
28774;SDS011;15926;51.348;6.596;2023-05-06T09:09:22;5.40;;;3.40;;
28774;SDS011;15926;51.348;6.596;2023-05-06T09:11:48;6.45;;;3.95;;
28774;SDS011;15926;51.348;6.596;2023-05-06T09:14:19;3.90;;;3.20;;
28774;SDS011;15926;51.348;6.596;2023-05-06T09:16:46;3.53;;;2.83;;
28774;SDS011;15926;51.348;6.596;2023-05-06T09:19:13;2.67;;;2.47;;
28774;SDS011;15926;51.348;6.596;2023-05-06T09:21:40;4.10;;;2.80;;
28774;SDS011;15926;51.348;6.596;2023-05-06T09:24:07;3.42;;;2.40;;
28774;SDS011;15926;51.348;6.596;2023-05-06T09:26:34;3.28;;;2.78;;
28774;SDS011;15926;51.348;6.596;2023-05-06T09:29:00;6.15;;;3.45;;
28774;SDS011;15926;51.348;6.596;2023-05-06T09:31:27;3.83;;;2.85;;
28774;SDS011;15926;51.348;6.596;2023-05-06T09:33:54;10.50;;;2.83;;
28774;SDS011;15926;51.348;6.596;2023-05-06T09:36:20;2.75;;;2.33;;
28774;SDS011;15926;51.348;6.596;2023-05-06T09:38:47;3.55;;;1.98;;
28774;SDS011;15926;51.348;6.596;2023-05-06T09:41:13;4.90;;;2.50;;
28774;SDS011;15926;51.348;6.596;2023-05-06T09:43:44;3.58;;;2.15;;
28774;SDS011;15926;51.348;6.596;2023-05-06T09:46:12;3.35;;;2.38;;
28774;SDS011;15926;51.348;6.596;2023-05-06T09:48:38;3.53;;;3.30;;
28774;SDS011;15926;51.348;6.596;2023-05-06T09:51:04;4.00;;;3.70;;
28774;SDS011;15926;51.348;6.596;2023-05-06T09:53:31;4.78;;;3.33;;
28774;SDS011;15926;51.348;6.596;2023-05-06T09:55:59;10.45;;;3.78;;
28774;SDS011;15926;51.348;6.596;2023-05-06T09:58:25;2.90;;;2.70;;
28774;SDS011;15926;51.348;6.596;2023-05-06T10:00:52;2.90;;;2.70;;
28774;SDS011;15926;51.348;6.596;2023-05-06T10:03:19;3.67;;;2.05;;
28774;SDS011;15926;51.348;6.596;2023-05-06T10:05:46;2.60;;;2.40;;
28774;SDS011;15926;51.348;6.596;2023-05-06T10:08:12;4.13;;;2.50;;
28774;SDS011;15926;51.348;6.596;2023-05-06T10:10:42;2.97;;;2.58;;
28774;SDS011;15926;51.348;6.596;2023-05-06T10:13:09;2.28;;;2.15;;
28774;SDS011;15926;51.348;6.596;2023-05-06T10:15:35;3.65;;;2.70;;
28774;SDS011;15926;51.348;6.596;2023-05-06T10:18:02;3.92;;;2.83;;
28774;SDS011;15926;51.348;6.596;2023-05-06T10:20:30;2.28;;;2.10;;
28774;SDS011;15926;51.348;6.596;2023-05-06T10:25:43;2.25;;;2.00;;
28774;SDS011;15926;51.348;6.596;2023-05-06T10:28:10;2.47;;;1.63;;
28774;SDS011;15926;51.348;6.596;2023-05-06T10:30:37;2.63;;;1.63;;
28774;SDS011;15926;51.348;6.596;2023-05-06T10:33:07;4.50;;;2.53;;
28774;SDS011;15926;51.348;6.596;2023-05-06T10:40:51;4.13;;;2.35;;
28774;SDS011;15926;51.348;6.596;2023-05-06T10:43:27;2.95;;;2.75;;
28774;SDS011;15926;51.348;6.596;2023-05-06T10:48:24;2.13;;;1.92;;
28774;SDS011;15926;51.348;6.596;2023-05-06T10:50:50;3.35;;;1.80;;
28774;SDS011;15926;51.348;6.596;2023-05-06T10:53:16;2.15;;;1.92;;
28774;SDS011;15926;51.348;6.596;2023-05-06T10:56:05;2.13;;;1.80;;
28774;SDS011;15926;51.348;6.596;2023-05-06T10:58:34;1.70;;;1.60;;
28774;SDS011;15926;51.348;6.596;2023-05-06T11:01:00;4.00;;;2.13;;
28774;SDS011;15926;51.348;6.596;2023-05-06T11:03:26;3.15;;;1.83;;
28774;SDS011;15926;51.348;6.596;2023-05-06T11:05:52;2.10;;;1.92;;
28774;SDS011;15926;51.348;6.596;2023-05-06T11:08:23;2.50;;;1.90;;
28774;SDS011;15926;51.348;6.596;2023-05-06T11:10:49;2.20;;;1.90;;
28774;SDS011;15926;51.348;6.596;2023-05-06T11:15:45;2.33;;;2.17;;
28774;SDS011;15926;51.348;6.596;2023-05-06T11:24:11;2.78;;;1.50;;
28774;SDS011;15926;51.348;6.596;2023-05-06T11:26:18;2.08;;;1.23;;
28774;SDS011;15926;51.348;6.596;2023-05-06T11:28:47;2.22;;;1.20;;
28774;SDS011;15926;51.348;6.596;2023-05-06T11:31:13;1.60;;;1.20;;
28774;SDS011;15926;51.348;6.596;2023-05-06T11:33:46;2.20;;;1.13;;
28774;SDS011;15926;51.348;6.596;2023-05-06T11:36:14;2.42;;;0.98;;
28774;SDS011;15926;51.348;6.596;2023-05-06T11:38:41;1.60;;;1.23;;
28774;SDS011;15926;51.348;6.596;2023-05-06T11:41:07;1.45;;;1.35;;
28774;SDS011;15926;51.348;6.596;2023-05-06T11:43:33;1.90;;;0.80;;
28774;SDS011;15926;51.348;6.596;2023-05-06T11:45:59;1.45;;;0.80;;
28774;SDS011;15926;51.348;6.596;2023-05-06T11:48:25;2.17;;;0.90;;
28774;SDS011;15926;51.348;6.596;2023-05-06T11:50:52;1.17;;;1.00;;
28774;SDS011;15926;51.348;6.596;2023-05-06T11:53:20;2.17;;;0.90;;
28774;SDS011;15926;51.348;6.596;2023-05-06T11:55:47;2.47;;;1.38;;
28774;SDS011;15926;51.348;6.596;2023-05-06T11:58:13;1.52;;;1.00;;
28774;SDS011;15926;51.348;6.596;2023-05-06T12:00:47;3.03;;;1.10;;
28774;SDS011;15926;51.348;6.596;2023-05-06T12:03:15;2.70;;;1.33;;
28774;SDS011;15926;51.348;6.596;2023-05-06T12:05:41;1.95;;;1.25;;
28774;SDS011;15926;51.348;6.596;2023-05-06T12:08:08;3.15;;;1.00;;
28774;SDS011;15926;51.348;6.596;2023-05-06T12:10:34;1.60;;;1.00;;
28774;SDS011;15926;51.348;6.596;2023-05-06T12:13:00;3.70;;;1.42;;
28774;SDS011;15926;51.348;6.596;2023-05-06T12:15:27;1.90;;;1.00;;
28774;SDS011;15926;51.348;6.596;2023-05-06T12:17:53;2.03;;;1.17;;
28774;SDS011;15926;51.348;6.596;2023-05-06T12:20:19;1.27;;;0.77;;
28774;SDS011;15926;51.348;6.596;2023-05-06T12:22:45;2.50;;;0.88;;
28774;SDS011;15926;51.348;6.596;2023-05-06T12:25:29;1.88;;;0.70;;
28774;SDS011;15926;51.348;6.596;2023-05-06T12:27:55;0.93;;;0.70;;
28774;SDS011;15926;51.348;6.596;2023-05-06T12:30:29;2.08;;;1.00;;
28774;SDS011;15926;51.348;6.596;2023-05-06T12:32:58;2.50;;;1.35;;
28774;SDS011;15926;51.348;6.596;2023-05-06T12:35:25;0.95;;;0.65;;
28774;SDS011;15926;51.348;6.596;2023-05-06T12:37:52;2.38;;;1.33;;
28774;SDS011;15926;51.348;6.596;2023-05-06T12:40:18;2.05;;;1.10;;
28774;SDS011;15926;51.348;6.596;2023-05-06T12:42:52;1.70;;;0.90;;
28774;SDS011;15926;51.348;6.596;2023-05-06T12:45:18;1.20;;;1.00;;
28774;SDS011;15926;51.348;6.596;2023-05-06T12:47:54;2.30;;;1.00;;
28774;SDS011;15926;51.348;6.596;2023-05-06T12:53:05;2.42;;;1.00;;
28774;SDS011;15926;51.348;6.596;2023-05-06T12:55:32;1.58;;;0.93;;
28774;SDS011;15926;51.348;6.596;2023-05-06T12:57:58;1.80;;;0.93;;
28774;SDS011;15926;51.348;6.596;2023-05-06T13:00:25;1.60;;;0.75;;
28774;SDS011;15926;51.348;6.596;2023-05-06T13:02:51;2.45;;;0.70;;
28774;SDS011;15926;51.348;6.596;2023-05-06T13:05:17;1.85;;;0.63;;
28774;SDS011;15926;51.348;6.596;2023-05-06T13:07:43;2.33;;;0.60;;
28774;SDS011;15926;51.348;6.596;2023-05-06T13:10:09;1.63;;;0.70;;
28774;SDS011;15926;51.348;6.596;2023-05-06T13:12:35;1.48;;;0.70;;
28774;SDS011;15926;51.348;6.596;2023-05-06T13:15:01;3.03;;;1.05;;
28774;SDS011;15926;51.348;6.596;2023-05-06T13:17:28;2.20;;;1.00;;
28774;SDS011;15926;51.348;6.596;2023-05-06T13:19:54;2.05;;;0.70;;
28774;SDS011;15926;51.348;6.596;2023-05-06T13:22:23;2.25;;;1.05;;
28774;SDS011;15926;51.348;6.596;2023-05-06T13:24:50;1.20;;;0.80;;
28774;SDS011;15926;51.348;6.596;2023-05-06T13:27:16;1.15;;;0.85;;
28774;SDS011;15926;51.348;6.596;2023-05-06T13:29:42;2.05;;;0.88;;
28774;SDS011;15926;51.348;6.596;2023-05-06T13:32:08;1.90;;;0.98;;
28774;SDS011;15926;51.348;6.596;2023-05-06T13:34:34;2.28;;;0.80;;
28774;SDS011;15926;51.348;6.596;2023-05-06T13:37:00;0.52;;;0.52;;
28774;SDS011;15926;51.348;6.596;2023-05-06T13:39:26;0.70;;;0.70;;
28774;SDS011;15926;51.348;6.596;2023-05-06T13:41:52;1.73;;;0.70;;
28774;SDS011;15926;51.348;6.596;2023-05-06T13:44:18;1.20;;;0.68;;
28774;SDS011;15926;51.348;6.596;2023-05-06T13:46:45;0.60;;;0.52;;
28774;SDS011;15926;51.348;6.596;2023-05-06T13:49:11;0.82;;;0.70;;
28774;SDS011;15926;51.348;6.596;2023-05-06T13:51:37;2.65;;;0.68;;
28774;SDS011;15926;51.348;6.596;2023-05-06T13:54:03;1.33;;;0.70;;
28774;SDS011;15926;51.348;6.596;2023-05-06T13:56:30;1.88;;;0.75;;
28774;SDS011;15926;51.348;6.596;2023-05-06T13:58:56;1.52;;;0.60;;
28774;SDS011;15926;51.348;6.596;2023-05-06T14:01:22;1.27;;;0.60;;
28774;SDS011;15926;51.348;6.596;2023-05-06T14:03:48;2.22;;;0.70;;
28774;SDS011;15926;51.348;6.596;2023-05-06T14:06:14;1.50;;;0.60;;
28774;SDS011;15926;51.348;6.596;2023-05-06T14:08:40;2.13;;;0.60;;
28774;SDS011;15926;51.348;6.596;2023-05-06T14:11:06;1.33;;;0.57;;
28774;SDS011;15926;51.348;6.596;2023-05-06T14:13:34;0.60;;;0.55;;
28774;SDS011;15926;51.348;6.596;2023-05-06T14:16:00;2.65;;;0.98;;
28774;SDS011;15926;51.348;6.596;2023-05-06T14:18:26;0.75;;;0.73;;
28774;SDS011;15926;51.348;6.596;2023-05-06T14:20:53;2.47;;;0.70;;
28774;SDS011;15926;51.348;6.596;2023-05-06T14:23:19;1.75;;;0.60;;
28774;SDS011;15926;51.348;6.596;2023-05-06T14:25:45;3.17;;;0.80;;
28774;SDS011;15926;51.348;6.596;2023-05-06T14:28:11;2.33;;;0.93;;
28774;SDS011;15926;51.348;6.596;2023-05-06T14:30:38;2.03;;;0.65;;
28774;SDS011;15926;51.348;6.596;2023-05-06T14:33:04;2.95;;;0.80;;
28774;SDS011;15926;51.348;6.596;2023-05-06T14:35:30;1.58;;;0.85;;
28774;SDS011;15926;51.348;6.596;2023-05-06T14:37:56;2.25;;;0.73;;
28774;SDS011;15926;51.348;6.596;2023-05-06T14:40:22;2.03;;;0.60;;
28774;SDS011;15926;51.348;6.596;2023-05-06T14:42:48;3.88;;;0.95;;
28774;SDS011;15926;51.348;6.596;2023-05-06T14:45:15;1.67;;;0.85;;
28774;SDS011;15926;51.348;6.596;2023-05-06T14:47:41;1.60;;;1.10;;
28774;SDS011;15926;51.348;6.596;2023-05-06T14:50:07;1.95;;;0.80;;
28774;SDS011;15926;51.348;6.596;2023-05-06T14:52:34;3.35;;;0.70;;
28774;SDS011;15926;51.348;6.596;2023-05-06T14:55:01;1.33;;;0.73;;
28774;SDS011;15926;51.348;6.596;2023-05-06T14:57:27;3.92;;;0.90;;